createdAt,value
2017-12-31T00:01:29.212Z,2.57
2017-12-31T00:03:56.844Z,1.80
2017-12-31T00:06:24.501Z,1.73
2017-12-31T00:08:52.265Z,2.33
2017-12-31T00:11:19.950Z,1.97
2017-12-31T00:13:48.357Z,3.10
2017-12-31T00:16:16.007Z,2.60
2017-12-31T00:18:43.757Z,2.10
2017-12-31T00:21:11.515Z,1.73
2017-12-31T00:23:39.172Z,1.80
2017-12-31T00:26:06.795Z,2.50
2017-12-31T00:28:34.460Z,2.97
2017-12-31T00:31:02.113Z,2.17
2017-12-31T00:33:30.514Z,2.73
2017-12-31T00:35:58.150Z,4.37
2017-12-31T00:38:26.537Z,2.47
2017-12-31T00:40:54.953Z,2.40
2017-12-31T00:43:22.566Z,3.83
2017-12-31T00:45:51.031Z,1.97
2017-12-31T00:48:18.646Z,1.93
2017-12-31T00:50:46.282Z,3.03
2017-12-31T00:53:14.696Z,2.47
2017-12-31T00:55:42.362Z,2.10
2017-12-31T00:58:10.056Z,1.87
2017-12-31T01:00:37.706Z,2.03
2017-12-31T01:03:05.359Z,2.70
2017-12-31T01:05:33.057Z,2.83
2017-12-31T01:08:01.450Z,2.50
2017-12-31T01:10:29.924Z,2.77
2017-12-31T01:12:58.394Z,1.90
2017-12-31T01:15:26.069Z,3.30
2017-12-31T01:17:54.481Z,2.43
2017-12-31T01:20:22.145Z,1.73
2017-12-31T01:22:49.780Z,3.40
2017-12-31T01:25:17.420Z,2.77
2017-12-31T01:27:45.083Z,2.30
2017-12-31T01:30:12.724Z,2.77
2017-12-31T01:32:40.411Z,2.90
2017-12-31T01:35:08.034Z,2.20
2017-12-31T01:37:35.699Z,2.33
2017-12-31T01:40:03.334Z,3.07
2017-12-31T01:42:31.022Z,2.17
2017-12-31T01:44:58.682Z,3.70
2017-12-31T01:47:26.318Z,2.87
2017-12-31T01:49:53.985Z,2.50
2017-12-31T01:52:21.870Z,2.87
2017-12-31T01:54:49.525Z,4.67
2017-12-31T01:57:17.163Z,3.00
2017-12-31T01:59:45.577Z,2.60
2017-12-31T02:02:13.209Z,1.40
2017-12-31T02:04:40.830Z,2.90
2017-12-31T02:07:08.485Z,3.20
2017-12-31T02:09:36.115Z,2.57
2017-12-31T02:12:03.804Z,2.10
2017-12-31T02:14:31.446Z,2.37
2017-12-31T02:16:59.100Z,2.47
2017-12-31T02:19:26.718Z,2.40
2017-12-31T02:21:55.118Z,3.10
2017-12-31T02:24:23.538Z,2.57
2017-12-31T02:26:51.147Z,3.53
2017-12-31T02:29:19.554Z,2.90
2017-12-31T02:31:47.189Z,3.03
2017-12-31T02:34:15.604Z,3.07
2017-12-31T02:36:43.221Z,2.33
2017-12-31T02:39:11.677Z,2.67
2017-12-31T02:41:39.322Z,2.80
2017-12-31T02:44:06.959Z,2.30
2017-12-31T02:46:34.610Z,4.63
2017-12-31T02:49:02.432Z,2.63
2017-12-31T02:51:30.098Z,2.73
2017-12-31T02:53:57.754Z,3.27
2017-12-31T02:56:26.175Z,2.73
2017-12-31T02:58:53.833Z,2.47
2017-12-31T03:01:22.257Z,2.30
2017-12-31T03:03:50.198Z,2.43
2017-12-31T03:06:17.897Z,3.07
2017-12-31T03:08:45.509Z,2.90
2017-12-31T03:11:13.126Z,2.50
2017-12-31T03:13:40.812Z,2.80
2017-12-31T03:16:08.441Z,2.40
2017-12-31T03:18:36.100Z,3.17
2017-12-31T03:21:03.916Z,3.47
2017-12-31T03:23:32.359Z,2.53
2017-12-31T03:26:00.043Z,3.80
2017-12-31T03:28:27.694Z,2.80
2017-12-31T03:30:55.319Z,2.90
2017-12-31T03:33:22.979Z,3.10
2017-12-31T03:35:50.614Z,3.57
2017-12-31T03:38:19.031Z,2.77
2017-12-31T03:40:46.889Z,2.77
2017-12-31T03:43:14.527Z,2.73
2017-12-31T03:45:42.982Z,2.33
2017-12-31T03:48:10.610Z,3.40
2017-12-31T03:50:38.292Z,3.20
2017-12-31T03:53:05.973Z,2.40
2017-12-31T03:55:34.455Z,2.70
2017-12-31T03:58:02.082Z,3.20
2017-12-31T04:00:29.701Z,2.73
2017-12-31T04:02:58.109Z,2.80
2017-12-31T04:05:25.729Z,2.77
2017-12-31T04:07:54.168Z,3.07
2017-12-31T04:10:21.786Z,3.13
2017-12-31T04:12:50.232Z,2.40
2017-12-31T04:15:17.913Z,4.17
2017-12-31T04:17:46.306Z,2.93
2017-12-31T04:20:14.718Z,3.60
2017-12-31T04:22:42.345Z,2.70
2017-12-31T04:25:10.769Z,2.97
2017-12-31T04:27:38.391Z,2.90
2017-12-31T04:30:06.795Z,3.20
2017-12-31T04:32:34.431Z,2.80
2017-12-31T04:35:02.864Z,2.47
2017-12-31T04:37:30.509Z,2.77
2017-12-31T04:39:58.153Z,2.30
2017-12-31T04:42:25.782Z,2.17
2017-12-31T04:44:54.182Z,2.60
2017-12-31T04:47:22.671Z,3.83
2017-12-31T04:49:50.275Z,3.27
2017-12-31T04:52:17.952Z,2.77
2017-12-31T04:54:46.146Z,3.03
2017-12-31T04:57:15.196Z,2.70
2017-12-31T04:59:43.667Z,2.40
2017-12-31T05:02:11.331Z,3.07
2017-12-31T05:04:39.779Z,2.33
2017-12-31T05:07:08.548Z,2.00
2017-12-31T05:09:38.725Z,2.57
2017-12-31T05:12:09.147Z,2.57
2017-12-31T05:14:38.864Z,2.40
2017-12-31T05:17:07.641Z,2.83
2017-12-31T05:19:35.824Z,5.63
2017-12-31T05:22:03.534Z,3.13
2017-12-31T05:24:32.047Z,2.63
2017-12-31T05:26:59.687Z,4.40
2017-12-31T05:29:28.128Z,4.73
2017-12-31T05:31:55.772Z,2.13
2017-12-31T05:34:23.412Z,2.87
2017-12-31T05:36:51.075Z,3.17
2017-12-31T05:39:18.696Z,3.50
2017-12-31T05:41:46.370Z,3.83
2017-12-31T05:44:14.763Z,2.80
2017-12-31T05:46:42.388Z,2.10
2017-12-31T05:49:10.038Z,2.50
2017-12-31T05:51:37.647Z,2.80
2017-12-31T05:54:05.642Z,3.40
2017-12-31T05:56:33.265Z,2.53
2017-12-31T05:59:01.662Z,3.80
2017-12-31T06:01:29.318Z,2.63
2017-12-31T06:03:57.696Z,2.13
2017-12-31T06:06:26.142Z,4.60
2017-12-31T06:08:53.775Z,2.57
2017-12-31T06:11:21.396Z,3.40
2017-12-31T06:13:49.824Z,2.23
2017-12-31T06:16:17.485Z,2.73
2017-12-31T06:18:45.150Z,2.83
2017-12-31T06:21:12.767Z,1.77
2017-12-31T06:23:41.176Z,1.70
2017-12-31T06:26:08.791Z,2.10
2017-12-31T06:28:36.460Z,2.30
2017-12-31T06:31:04.879Z,1.97
2017-12-31T06:33:32.576Z,3.00
2017-12-31T06:36:00.199Z,2.47
2017-12-31T06:38:27.850Z,2.60
2017-12-31T06:40:55.489Z,3.30
2017-12-31T06:43:23.878Z,2.37
2017-12-31T06:45:51.546Z,3.40
2017-12-31T06:48:20.027Z,2.63
2017-12-31T06:50:47.690Z,3.50
2017-12-31T06:53:16.066Z,2.80
2017-12-31T06:55:44.446Z,2.77
2017-12-31T06:58:12.864Z,4.10
2017-12-31T07:00:40.488Z,2.67
2017-12-31T07:03:08.917Z,2.83
2017-12-31T07:05:36.564Z,2.90
2017-12-31T07:08:04.226Z,3.50
2017-12-31T07:10:31.832Z,2.53
2017-12-31T07:12:59.510Z,3.00
2017-12-31T07:15:27.912Z,2.07
2017-12-31T07:17:55.610Z,5.50
2017-12-31T07:20:23.270Z,2.50
2017-12-31T07:22:50.931Z,3.67
2017-12-31T07:25:18.569Z,2.40
2017-12-31T07:27:46.240Z,3.50
2017-12-31T07:30:13.918Z,4.40
2017-12-31T07:32:41.581Z,3.40
2017-12-31T07:35:09.212Z,4.00
2017-12-31T07:37:36.834Z,4.07
2017-12-31T07:40:04.500Z,4.23
2017-12-31T07:42:32.134Z,3.80
2017-12-31T07:44:59.794Z,4.53
2017-12-31T07:47:27.418Z,3.50
2017-12-31T07:49:55.148Z,2.80
2017-12-31T07:52:22.781Z,3.77
2017-12-31T07:54:50.443Z,2.87
2017-12-31T07:57:18.095Z,4.17
2017-12-31T07:59:45.755Z,3.67
2017-12-31T08:02:13.406Z,3.83
2017-12-31T08:04:41.088Z,4.33
2017-12-31T08:07:08.725Z,4.43
2017-12-31T08:09:36.361Z,3.13
2017-12-31T08:12:04.778Z,3.40
2017-12-31T08:14:32.401Z,4.00
2017-12-31T08:17:00.856Z,5.83
2017-12-31T08:19:28.471Z,4.17
2017-12-31T08:21:56.157Z,3.60
2017-12-31T08:24:23.845Z,3.63
2017-12-31T08:26:51.586Z,4.10
2017-12-31T08:29:19.213Z,4.83
2017-12-31T08:31:46.870Z,3.40
2017-12-31T08:34:14.486Z,3.43
2017-12-31T08:36:42.260Z,3.40
2017-12-31T08:39:09.889Z,3.20
2017-12-31T08:41:37.568Z,3.53
2017-12-31T08:44:05.199Z,2.60
2017-12-31T08:46:32.850Z,3.47
2017-12-31T08:49:00.503Z,3.57
2017-12-31T08:51:28.123Z,2.20
2017-12-31T08:53:55.765Z,2.80
2017-12-31T08:56:23.402Z,3.87
2017-12-31T08:58:51.068Z,3.27
2017-12-31T09:01:18.729Z,2.43
2017-12-31T09:03:46.376Z,2.63
2017-12-31T09:06:14.190Z,2.30
2017-12-31T09:08:41.834Z,2.97
2017-12-31T09:11:09.485Z,2.70
2017-12-31T09:13:37.102Z,2.83
2017-12-31T09:16:04.826Z,2.17
2017-12-31T09:18:32.443Z,2.70
2017-12-31T09:21:00.846Z,2.70
2017-12-31T09:23:28.625Z,2.80
2017-12-31T09:25:56.376Z,2.93
2017-12-31T09:28:24.030Z,2.53
2017-12-31T09:30:51.666Z,2.50
2017-12-31T09:33:20.079Z,3.07
2017-12-31T09:35:47.697Z,2.10
2017-12-31T09:38:16.115Z,2.70
2017-12-31T09:40:43.801Z,2.47
2017-12-31T09:43:11.416Z,2.70
2017-12-31T09:45:39.890Z,2.47
2017-12-31T09:48:08.291Z,2.30
2017-12-31T09:50:35.946Z,2.60
2017-12-31T09:53:04.328Z,1.90
2017-12-31T09:55:32.777Z,2.00
2017-12-31T09:58:00.425Z,2.53
2017-12-31T10:00:28.190Z,2.70
2017-12-31T10:02:55.845Z,2.67
2017-12-31T10:05:23.521Z,2.60
2017-12-31T10:07:51.250Z,2.47
2017-12-31T10:10:18.905Z,2.47
2017-12-31T10:12:46.549Z,2.50
2017-12-31T10:15:15.075Z,2.00
2017-12-31T10:17:42.717Z,3.27
2017-12-31T10:20:10.379Z,2.67
2017-12-31T10:22:37.991Z,3.30
2017-12-31T10:25:05.672Z,2.40
2017-12-31T10:27:34.078Z,2.60
2017-12-31T10:30:01.715Z,1.90
2017-12-31T10:32:30.143Z,2.37
2017-12-31T10:34:57.778Z,2.03
2017-12-31T10:37:25.423Z,1.93
2017-12-31T10:39:53.870Z,1.80
2017-12-31T10:42:21.626Z,1.53
2017-12-31T10:44:49.263Z,1.90
2017-12-31T10:47:16.913Z,2.13
2017-12-31T10:49:44.588Z,1.80
2017-12-31T10:52:12.211Z,1.73
2017-12-31T10:54:40.651Z,2.00
2017-12-31T10:57:08.333Z,2.13
2017-12-31T10:59:36.017Z,2.30
2017-12-31T11:02:04.397Z,2.40
2017-12-31T11:04:32.786Z,1.60
2017-12-31T11:07:00.489Z,2.20
2017-12-31T11:09:28.262Z,2.30
2017-12-31T11:11:55.951Z,2.20
2017-12-31T11:14:23.577Z,2.20
2017-12-31T11:16:51.270Z,1.90
2017-12-31T11:19:18.977Z,2.70
2017-12-31T11:21:46.638Z,3.20
2017-12-31T11:24:14.290Z,2.50
2017-12-31T11:26:42.706Z,1.70
2017-12-31T11:29:10.462Z,3.67
2017-12-31T11:31:38.113Z,2.60
2017-12-31T11:34:05.762Z,3.70
2017-12-31T11:36:33.476Z,2.57
2017-12-31T11:39:01.097Z,2.50
2017-12-31T11:41:29.006Z,3.10
2017-12-31T11:43:56.631Z,3.47
2017-12-31T11:46:25.226Z,3.50
2017-12-31T11:48:53.623Z,3.20
2017-12-31T11:51:21.890Z,2.20
2017-12-31T11:53:49.640Z,4.30
2017-12-31T11:56:17.329Z,2.87
2017-12-31T11:58:47.545Z,4.10
2017-12-31T12:01:15.164Z,3.30
2017-12-31T12:03:48.918Z,4.03
2017-12-31T12:06:16.749Z,4.07
2017-12-31T12:08:44.362Z,3.50
2017-12-31T12:11:12.037Z,3.00
2017-12-31T12:13:40.442Z,3.73
2017-12-31T12:16:08.276Z,3.37
2017-12-31T12:18:36.687Z,5.07
2017-12-31T12:21:05.212Z,2.47
2017-12-31T12:23:32.904Z,3.47
2017-12-31T12:26:00.546Z,4.00
2017-12-31T12:28:28.206Z,3.40
2017-12-31T12:30:56.066Z,4.87
2017-12-31T12:33:23.926Z,5.57
2017-12-31T12:35:51.538Z,2.97
2017-12-31T12:38:19.969Z,3.53
2017-12-31T12:40:47.593Z,3.90
2017-12-31T12:43:19.681Z,4.57
2017-12-31T12:45:47.455Z,5.30
2017-12-31T12:48:15.170Z,4.67
2017-12-31T12:50:43.578Z,4.67
2017-12-31T12:53:11.252Z,3.43
2017-12-31T12:55:38.921Z,4.20
2017-12-31T12:58:06.644Z,6.03
2017-12-31T13:00:35.086Z,4.20
2017-12-31T13:03:02.945Z,4.30
2017-12-31T13:05:30.662Z,4.80
2017-12-31T13:07:59.086Z,4.53
2017-12-31T13:10:26.710Z,5.80
2017-12-31T13:12:55.062Z,3.10
2017-12-31T13:15:22.746Z,4.10
2017-12-31T13:17:51.184Z,5.43
2017-12-31T13:20:20.041Z,3.40
2017-12-31T13:22:47.663Z,3.10
2017-12-31T13:25:16.201Z,4.50
2017-12-31T13:27:43.824Z,4.67
2017-12-31T13:30:12.387Z,4.80
2017-12-31T13:32:40.154Z,3.83
2017-12-31T13:35:08.567Z,4.47
2017-12-31T13:37:36.356Z,5.00
2017-12-31T13:40:05.351Z,4.50
2017-12-31T13:42:33.063Z,5.30
2017-12-31T13:45:01.471Z,4.67
2017-12-31T13:47:29.167Z,4.60
2017-12-31T13:49:56.934Z,4.63
2017-12-31T13:52:24.605Z,5.00
2017-12-31T13:54:52.314Z,4.83
2017-12-31T13:57:19.976Z,4.57
2017-12-31T13:59:47.707Z,4.80
2017-12-31T14:02:15.385Z,5.60
2017-12-31T14:04:43.779Z,5.17
2017-12-31T14:07:11.455Z,4.70
2017-12-31T14:09:39.159Z,4.13
2017-12-31T14:12:06.811Z,4.60
2017-12-31T14:14:34.521Z,4.20
2017-12-31T14:17:02.947Z,4.43
2017-12-31T14:19:30.588Z,3.07
2017-12-31T14:21:58.222Z,4.10
2017-12-31T14:24:26.754Z,4.23
2017-12-31T14:26:54.395Z,3.60
2017-12-31T14:29:22.055Z,3.90
2017-12-31T14:31:49.720Z,4.30
2017-12-31T14:34:17.343Z,3.63
2017-12-31T14:36:44.991Z,3.50
2017-12-31T14:39:12.623Z,4.20
2017-12-31T14:41:40.322Z,4.10
2017-12-31T14:44:08.750Z,3.93
2017-12-31T14:46:36.867Z,3.50
2017-12-31T14:49:04.510Z,3.30
2017-12-31T14:51:32.176Z,3.00
2017-12-31T14:53:59.844Z,3.43
2017-12-31T14:56:29.429Z,3.47
2017-12-31T14:58:57.270Z,3.70
2017-12-31T15:01:24.907Z,3.33
2017-12-31T15:03:53.292Z,5.20
2017-12-31T15:06:20.955Z,4.00
2017-12-31T15:08:49.361Z,3.63
2017-12-31T15:11:17.047Z,3.73
2017-12-31T15:13:44.691Z,3.33
2017-12-31T15:16:12.367Z,2.20
2017-12-31T15:18:40.121Z,3.70
2017-12-31T15:21:07.980Z,2.03
2017-12-31T15:23:35.693Z,3.50
2017-12-31T15:26:03.892Z,2.87
2017-12-31T15:28:32.417Z,2.80
2017-12-31T15:31:00.033Z,2.83
2017-12-31T15:33:28.468Z,3.20
2017-12-31T15:35:56.153Z,2.93
2017-12-31T15:38:23.856Z,3.30
2017-12-31T15:40:51.479Z,2.73
2017-12-31T15:43:19.138Z,2.60
2017-12-31T15:45:46.900Z,3.13
2017-12-31T15:48:14.558Z,3.03
2017-12-31T15:50:42.202Z,2.53
2017-12-31T15:53:09.891Z,2.80
2017-12-31T15:55:37.771Z,3.37
2017-12-31T15:58:05.403Z,3.33
2017-12-31T16:00:33.072Z,3.43
2017-12-31T16:03:00.729Z,2.90
2017-12-31T16:05:28.371Z,2.97
2017-12-31T16:07:56.083Z,3.10
2017-12-31T16:10:23.706Z,2.37
2017-12-31T16:12:51.477Z,2.80
2017-12-31T16:15:19.187Z,3.00
2017-12-31T16:17:46.907Z,3.87
2017-12-31T16:20:14.781Z,3.40
2017-12-31T16:22:42.471Z,3.10
2017-12-31T16:25:10.112Z,2.43
2017-12-31T16:27:37.819Z,2.87
2017-12-31T16:30:05.463Z,3.03
2017-12-31T16:32:33.883Z,3.80
2017-12-31T16:35:01.590Z,3.20
2017-12-31T16:37:30.027Z,3.07
2017-12-31T16:39:58.611Z,2.90
2017-12-31T16:42:26.340Z,4.23
2017-12-31T16:44:54.838Z,3.30
2017-12-31T16:47:23.407Z,3.53
2017-12-31T16:49:51.147Z,3.17
2017-12-31T16:52:18.807Z,3.20
2017-12-31T16:54:46.470Z,2.80
2017-12-31T16:57:14.123Z,1.87
2017-12-31T16:59:42.749Z,2.37
2017-12-31T17:02:11.236Z,4.57
2017-12-31T17:04:39.622Z,4.13
2017-12-31T17:07:07.290Z,4.80
2017-12-31T17:09:34.993Z,4.30
2017-12-31T17:12:02.658Z,4.47
2017-12-31T17:14:31.890Z,3.77
2017-12-31T17:17:00.426Z,3.03
2017-12-31T17:19:28.053Z,2.70
2017-12-31T17:21:55.761Z,2.60
2017-12-31T17:24:23.656Z,2.50
2017-12-31T17:26:52.147Z,2.90
2017-12-31T17:29:20.558Z,2.27
2017-12-31T17:31:48.251Z,2.40
2017-12-31T17:34:15.907Z,3.23
2017-12-31T17:36:43.543Z,3.37
2017-12-31T17:39:11.184Z,3.93
2017-12-31T17:41:38.931Z,4.37
2017-12-31T17:44:06.580Z,3.67
2017-12-31T17:46:34.240Z,3.30
2017-12-31T17:49:01.874Z,3.43
2017-12-31T17:51:29.514Z,2.60
2017-12-31T17:53:57.177Z,1.93
2017-12-31T17:56:24.822Z,2.40
2017-12-31T17:58:53.236Z,2.10
2017-12-31T18:01:20.872Z,1.87
2017-12-31T18:03:48.528Z,1.50
2017-12-31T18:06:16.152Z,1.37
2017-12-31T18:08:43.892Z,1.73
2017-12-31T18:11:11.519Z,1.77
2017-12-31T18:13:40.037Z,1.40
2017-12-31T18:16:07.647Z,2.50
2017-12-31T18:18:36.158Z,3.30
2017-12-31T18:21:03.802Z,2.93
2017-12-31T18:23:32.180Z,2.43
2017-12-31T18:26:00.596Z,2.63
2017-12-31T18:28:28.234Z,7.63
2017-12-31T18:30:56.026Z,2.77
2017-12-31T18:33:23.646Z,8.63
2017-12-31T18:35:53.040Z,12.60
2017-12-31T18:38:20.765Z,12.60
2017-12-31T18:40:48.420Z,9.50
2017-12-31T18:43:16.142Z,9.47
2017-12-31T18:45:44.571Z,7.70
2017-12-31T18:48:12.342Z,6.50
2017-12-31T18:50:39.994Z,4.90
2017-12-31T18:53:07.687Z,6.23
2017-12-31T18:55:35.340Z,4.70
2017-12-31T18:58:03.025Z,5.97
2017-12-31T19:00:31.435Z,6.80
2017-12-31T19:02:59.325Z,6.43
2017-12-31T19:05:27.004Z,6.50
2017-12-31T19:07:54.899Z,5.27
2017-12-31T19:10:22.568Z,5.53
2017-12-31T19:12:50.970Z,5.37
2017-12-31T19:15:18.663Z,3.80
2017-12-31T19:17:46.311Z,3.30
2017-12-31T19:20:13.986Z,3.80
2017-12-31T19:22:41.598Z,3.03
2017-12-31T19:25:10.048Z,3.27
2017-12-31T19:27:37.667Z,5.17
2017-12-31T19:30:05.302Z,4.87
2017-12-31T19:32:33.717Z,4.03
2017-12-31T19:35:01.343Z,3.70
2017-12-31T19:37:29.789Z,3.40
2017-12-31T19:39:57.481Z,2.83
2017-12-31T19:42:25.942Z,3.23
2017-12-31T19:44:53.586Z,3.00
2017-12-31T19:47:21.215Z,3.13
2017-12-31T19:49:49.714Z,3.60
2017-12-31T19:52:17.335Z,3.30
2017-12-31T19:54:45.748Z,3.93
2017-12-31T19:57:13.426Z,4.20
2017-12-31T19:59:41.204Z,3.53
2017-12-31T20:02:08.828Z,3.53
2017-12-31T20:04:36.490Z,4.07
2017-12-31T20:07:04.127Z,3.20
2017-12-31T20:09:32.566Z,3.37
2017-12-31T20:12:00.241Z,4.80
2017-12-31T20:14:27.881Z,4.67
2017-12-31T20:16:56.057Z,4.30
2017-12-31T20:19:23.708Z,4.37
2017-12-31T20:21:51.512Z,3.87
2017-12-31T20:24:20.118Z,5.63
2017-12-31T20:26:48.108Z,9.37
2017-12-31T20:29:16.008Z,15.90
2017-12-31T20:31:43.975Z,228.20
2017-12-31T20:34:12.062Z,61.33
2017-12-31T20:36:40.738Z,49.60
2017-12-31T20:39:10.344Z,29.33
2017-12-31T20:41:38.416Z,12.20
2017-12-31T20:44:06.414Z,10.60
2017-12-31T20:46:34.461Z,9.73
2017-12-31T20:49:02.116Z,8.07
2017-12-31T20:51:29.733Z,7.90
2017-12-31T20:53:58.175Z,10.90
2017-12-31T20:56:25.898Z,7.13
2017-12-31T20:58:53.519Z,7.50
2017-12-31T21:01:21.198Z,7.00
2017-12-31T21:03:49.585Z,7.13
2017-12-31T21:06:17.967Z,6.03
2017-12-31T21:08:46.488Z,7.93
2017-12-31T21:11:14.123Z,9.30
2017-12-31T21:13:41.767Z,9.80
2017-12-31T21:16:10.414Z,9.60
2017-12-31T21:18:38.290Z,15.03
2017-12-31T21:21:07.797Z,9.03
2017-12-31T21:23:36.043Z,8.17
2017-12-31T21:26:03.863Z,7.27
2017-12-31T21:28:32.622Z,8.17
2017-12-31T21:31:00.592Z,7.33
2017-12-31T21:33:28.559Z,7.50
2017-12-31T21:35:56.427Z,7.03
2017-12-31T21:38:24.398Z,5.23
2017-12-31T21:40:53.076Z,5.90
2017-12-31T21:43:21.052Z,6.37
2017-12-31T21:45:48.921Z,4.90
2017-12-31T21:48:16.783Z,5.87
2017-12-31T21:50:44.624Z,4.93
2017-12-31T21:53:12.352Z,4.33
2017-12-31T21:55:40.894Z,4.27
2017-12-31T21:58:08.506Z,4.10
2017-12-31T22:00:36.144Z,3.17
2017-12-31T22:03:04.908Z,3.70
2017-12-31T22:05:32.883Z,3.57
2017-12-31T22:08:00.845Z,3.90
2017-12-31T22:10:28.720Z,3.70
2017-12-31T22:12:57.093Z,4.20
2017-12-31T22:15:25.672Z,4.50
2017-12-31T22:17:53.646Z,4.97
2017-12-31T22:20:21.513Z,7.57
2017-12-31T22:22:49.377Z,8.27
2017-12-31T22:25:16.988Z,8.57
2017-12-31T22:27:45.436Z,4.87
2017-12-31T22:30:13.078Z,3.40
2017-12-31T22:32:40.684Z,2.77
2017-12-31T22:35:09.114Z,3.67
2017-12-31T22:37:36.726Z,3.00
2017-12-31T22:40:05.114Z,4.53
2017-12-31T22:42:33.577Z,5.00
2017-12-31T22:45:01.964Z,5.37
2017-12-31T22:47:30.386Z,6.63
2017-12-31T22:49:58.011Z,7.73
2017-12-31T22:52:26.430Z,93.73
2017-12-31T22:54:54.069Z,64.00
2017-12-31T22:57:21.728Z,46.30
2017-12-31T22:59:49.350Z,11.40
2017-12-31T23:02:16.962Z,24.67
2017-12-31T23:04:44.675Z,41.57
2017-12-31T23:07:13.068Z,103.60
2017-12-31T23:09:41.511Z,121.73
2017-12-31T23:12:09.180Z,158.07
2017-12-31T23:14:36.931Z,193.80
2017-12-31T23:17:04.585Z,253.33
2017-12-31T23:19:32.592Z,229.47
2017-12-31T23:22:01.282Z,175.40
2017-12-31T23:24:28.927Z,157.10
2017-12-31T23:26:56.630Z,140.43
2017-12-31T23:29:25.036Z,74.47
2017-12-31T23:31:52.694Z,57.07
2017-12-31T23:34:20.404Z,40.60
2017-12-31T23:36:48.043Z,32.47
2017-12-31T23:39:15.716Z,27.87
2017-12-31T23:41:44.113Z,20.37
2017-12-31T23:44:11.787Z,15.80
2017-12-31T23:46:40.187Z,36.57
2017-12-31T23:49:07.817Z,29.30
2017-12-31T23:51:35.478Z,30.83
2017-12-31T23:54:03.152Z,30.27
2017-12-31T23:56:31.639Z,22.07
2017-12-31T23:59:00.048Z,17.00
